NORTHERN NASSAU  -  Rip Current Statement Rip Current Statement     Air Quality Alert Air Quality Alert        NORTHERN QUEENS  -  Rip Current Statement Rip Current Statement     Air Quality Alert Air Quality Alert        SOUTHERN NASSAU  -  Rip Current Statement Rip Current Statement     Air Quality Alert Air Quality Alert        SOUTHERN QUEENS  -  Rip Current Statement Rip Current Statement     Air Quality Alert Air Quality Alert        NORTHEAST SUFFOLK  -  Air Quality Alert Air Quality Alert        NORTHWEST SUFFOLK  -  Air Quality Alert Air Quality Alert        SOUTHEAST SUFFOLK  -  Air Quality Alert Air Quality Alert        SOUTHWEST SUFFOLK  -  Air Quality Alert Air Quality Alert      

Active alerts

Northern Queens
  Details for Northern Queens Rip Current Statement  +1 additional alert
Southern Queens
  Details for Southern Queens Rip Current Statement  +1 additional alert
Northern Nassau
  Details for Northern Nassau Rip Current Statement  +1 additional alert
Southern Nassau
  Details for Southern Nassau Rip Current Statement  +1 additional alert
Northwest Suffolk
  Details for Northwest Suffolk Air Quality Alert
Southwest Suffolk
  Details for Southwest Suffolk Air Quality Alert
Northeast Suffolk
  Details for Northeast Suffolk Air Quality Alert
Southeast Suffolk
  Details for Southeast Suffolk Air Quality Alert


WXM80 ListenWXM80 Stop

You find our weather info also at:

UK Metoffice

WeatherCloud

Weather Underground

Northeastern Weather Network

AWEKAS

Citizen Weather Observer Program (CWOP)

HAMweather, WeatherForYou, PWS Weather


Weather Underground History page Text

Daily Summary for May 25, 2018 Units:  English    Metric   Both
« Previous Day
Next Day »
Daily Weekly Monthly Yearly Custom
  Current: High: Low: Average:
Temperature: 82.8 °F 82.8 °F 62.6 °F 66.6 °F
Dew Point: 61.1 °F 61.1 °F 47.4 °F 52.7 °F
Humidity: 48 % 72 % 45 % 61 %
Wind Speed: 0.4 mph 5.2 mph 0.0 mph 1.2 mph
Wind Gust: 3.5 mph 10.4 mph - -
Wind:WNW - - SW
Pressure: 26.58 in 26.58 in 26.58 in -
Precipitation: 0.00 in      
Historical Graphs
 
 
Tabular Data for May 25, 2018
Time Temperature Dew Point Pressure Wind Wind Speed Wind Gust Humidity Rainfall Rate (Hourly)
00:02 65.0 °F 47.4 °F 26.58 in WSW 1.1 mph 3.5 mph 53 % 0.00 in
00:08 65.0 °F 47.9 °F 26.58 in SW 1.8 mph 3.5 mph 54 % 0.00 in
00:13 64.9 °F 48.3 °F 26.58 in SSW 2.7 mph 4.6 mph 55 % 0.00 in
00:18 64.9 °F 48.3 °F 26.58 in SSW 2.1 mph 3.5 mph 55 % 0.00 in
00:23 64.8 °F 48.2 °F 26.58 in SSW 2.4 mph 6.9 mph 55 % 0.00 in
00:28 64.8 °F 48.7 °F 26.58 in SSW 3.0 mph 4.6 mph 56 % 0.00 in
00:33 64.7 °F 48.6 °F 26.58 in SSW 1.4 mph 3.5 mph 56 % 0.00 in
00:38 64.6 °F 48.5 °F 26.58 in SSW 1.8 mph 6.0 mph 56 % 0.00 in
00:43 64.5 °F 48.9 °F 26.58 in SSW 1.9 mph 5.0 mph 57 % 0.00 in
00:48 64.5 °F 48.9 °F 26.58 in SSW 1.9 mph 4.0 mph 57 % 0.00 in
00:53 64.4 °F 48.8 °F 26.58 in SSW 3.9 mph 6.9 mph 57 % 0.00 in
00:58 64.4 °F 48.8 °F 26.58 in SW 1.4 mph 3.5 mph 57 % 0.00 in
01:03 64.3 °F 49.2 °F 26.58 in SSW 1.9 mph 3.5 mph 58 % 0.00 in
01:08 64.3 °F 48.7 °F 26.58 in SW 0.9 mph 3.5 mph 57 % 0.00 in
01:13 64.3 °F 48.7 °F 26.58 in SW 1.9 mph 6.9 mph 57 % 0.00 in
01:18 64.3 °F 48.7 °F 26.58 in WSW 2.9 mph 5.0 mph 57 % 0.00 in
01:23 64.3 °F 48.7 °F 26.58 in WSW 2.8 mph 10.4 mph 57 % 0.00 in
01:28 64.3 °F 48.7 °F 26.58 in SSW 0.7 mph 4.6 mph 57 % 0.00 in
01:33 64.3 °F 48.7 °F 26.58 in WSW 2.1 mph 3.5 mph 57 % 0.00 in
01:38 64.4 °F 48.8 °F 26.58 in SSW 0.9 mph 2.3 mph 57 % 0.00 in
01:43 64.4 °F 48.8 °F 26.58 in WSW 0.8 mph 2.3 mph 57 % 0.00 in
01:48 64.4 °F 48.8 °F 26.58 in SW 0.5 mph 3.5 mph 57 % 0.00 in
01:53 64.4 °F 48.8 °F 26.58 in SSW 1.0 mph 4.6 mph 57 % 0.00 in
01:58 64.4 °F 48.4 °F 26.58 in SW 0.4 mph 4.6 mph 56 % 0.00 in
02:03 64.4 °F 48.8 °F 26.58 in SW 0.3 mph 3.5 mph 57 % 0.00 in
02:08 64.4 °F 48.8 °F 26.58 in WSW 0.3 mph 3.5 mph 57 % 0.00 in
02:13 64.4 °F 48.8 °F 26.58 in Calm     57 % 0.00 in
02:19 64.3 °F 48.7 °F 26.58 in SW 0.2 mph 1.2 mph 57 % 0.00 in
02:24 64.3 °F 48.7 °F 26.58 in SW 0.1 mph 2.3 mph 57 % 0.00 in
02:29 64.3 °F 49.2 °F 26.58 in SSW 1.4 mph 3.5 mph 58 % 0.00 in
02:34 64.3 °F 49.2 °F 26.58 in SW 0.5 mph 3.5 mph 58 % 0.00 in
02:39 64.2 °F 49.1 °F 26.58 in SSW 0.3 mph 1.2 mph 58 % 0.00 in
02:44 64.2 °F 49.1 °F 26.58 in SW 0.8 mph 4.6 mph 58 % 0.00 in
02:49 64.1 °F 49.5 °F 26.58 in SW 0.4 mph 2.3 mph 59 % 0.00 in
02:54 64.1 °F 49.5 °F 26.58 in SW 0.6 mph 2.3 mph 59 % 0.00 in
02:59 64.1 °F 49.5 °F 26.58 in Calm   1.2 mph 59 % 0.00 in
03:04 64.1 °F 49.5 °F 26.58 in Calm     59 % 0.00 in
03:09 64.0 °F 49.4 °F 26.58 in Calm     59 % 0.00 in
03:14 64.0 °F 49.4 °F 26.58 in Calm     59 % 0.00 in
03:19 63.9 °F 49.7 °F 26.58 in Calm     60 % 0.00 in
03:24 63.9 °F 49.7 °F 26.58 in Calm     60 % 0.00 in
03:29 63.8 °F 50.1 °F 26.58 in SW 0.2 mph 2.3 mph 61 % 0.00 in
03:34 63.7 °F 50.0 °F 26.58 in Calm     61 % 0.00 in
03:39 63.6 °F 49.9 °F 26.58 in Calm     61 % 0.00 in
03:44 63.6 °F 49.9 °F 26.58 in SW 0.4 mph 2.3 mph 61 % 0.00 in
03:49 63.4 °F 50.1 °F 26.58 in SW 1.1 mph 1.1 mph 62 % 0.00 in
03:54 63.4 °F 50.1 °F 26.58 in SW 0.4 mph   62 % 0.00 in
03:59 63.3 °F 50.1 °F 26.58 in Calm     62 % 0.00 in
04:04 63.2 °F 50.4 °F 26.58 in Calm     63 % 0.00 in
04:09 63.1 °F 50.3 °F 26.58 in SW 0.9 mph 2.0 mph 63 % 0.00 in
04:14 63.1 °F 50.3 °F 26.58 in Calm   1.2 mph 63 % 0.00 in
04:19 63.0 °F 50.6 °F 26.58 in Calm     64 % 0.00 in
04:20 63.0 °F 50.6 °F 26.58 in SW 0.1 mph 1.0 mph 64 % 0.00 in
04:25 63.0 °F 50.6 °F 26.58 in WSW 0.7 mph 2.3 mph 64 % 0.00 in
04:30 62.9 °F 50.5 °F 26.58 in Calm     64 % 0.00 in
04:35 62.9 °F 51.0 °F 26.58 in SW 0.6 mph 2.0 mph 65 % 0.00 in
04:40 62.9 °F 51.0 °F 26.58 in SW 0.2 mph 1.2 mph 65 % 0.00 in
04:45 62.9 °F 51.4 °F 26.58 in SW 0.1 mph 2.0 mph 66 % 0.00 in
04:50 62.9 °F 51.4 °F 26.58 in SW 1.5 mph 3.5 mph 66 % 0.00 in
04:55 62.9 °F 51.4 °F 26.58 in SW 0.3 mph 1.2 mph 66 % 0.00 in
05:00 62.9 °F 51.4 °F 26.58 in SW 0.3 mph 1.2 mph 66 % 0.00 in
05:05 62.9 °F 51.8 °F 26.58 in WSW 0.1 mph 1.2 mph 67 % 0.00 in
05:10 62.9 °F 51.8 °F 26.58 in SW 0.8 mph 3.5 mph 67 % 0.00 in
05:15 62.9 °F 51.8 °F 26.58 in SSW 0.5 mph 2.3 mph 67 % 0.00 in
05:20 62.9 °F 52.2 °F 26.58 in SW 0.3 mph 1.2 mph 68 % 0.00 in
05:25 62.9 °F 52.2 °F 26.58 in Calm     68 % 0.00 in
05:30 62.9 °F 52.2 °F 26.58 in Calm     68 % 0.00 in
05:36 62.9 °F 52.2 °F 26.58 in Calm     68 % 0.00 in
05:41 62.9 °F 52.1 °F 26.58 in Calm     68 % 0.00 in
05:46 62.8 °F 52.5 °F 26.58 in Calm   2.0 mph 69 % 0.00 in
05:51 62.8 °F 52.5 °F 26.58 in Calm     69 % 0.00 in
05:56 62.7 °F 52.4 °F 26.58 in Calm     69 % 0.00 in
06:01 62.7 °F 52.4 °F 26.58 in Calm     69 % 0.00 in
06:06 62.6 °F 52.7 °F 26.58 in Calm   2.0 mph 70 % 0.00 in
06:11 62.6 °F 52.7 °F 26.58 in Calm   3.5 mph 70 % 0.00 in
06:16 62.7 °F 53.2 °F 26.58 in SW 0.3 mph 2.3 mph 71 % 0.00 in
06:21 62.7 °F 53.2 °F 26.58 in SW 0.2 mph 2.3 mph 71 % 0.00 in
06:26 62.8 °F 53.3 °F 26.58 in SW 1.6 mph 6.9 mph 71 % 0.00 in
06:31 62.9 °F 53.4 °F 26.58 in SW 0.3 mph 2.3 mph 71 % 0.00 in
06:36 63.1 °F 53.9 °F 26.58 in SW 1.2 mph 3.5 mph 72 % 0.00 in
06:41 63.3 °F 54.1 °F 26.58 in Calm   2.3 mph 72 % 0.00 in
06:46 63.6 °F 54.4 °F 26.58 in Calm     72 % 0.00 in
06:51 63.9 °F 54.3 °F 26.58 in SW 1.1 mph 3.5 mph 71 % 0.00 in
06:56 64.2 °F 55.0 °F 26.58 in WSW 0.1 mph 2.3 mph 72 % 0.00 in
07:01 64.6 °F 55.0 °F 26.58 in Calm     71 % 0.00 in
07:06 65.0 °F 55.4 °F 26.58 in SSW 3.3 mph 5.8 mph 71 % 0.00 in
07:11 65.5 °F 55.5 °F 26.58 in WSW 0.5 mph 3.5 mph 70 % 0.00 in
07:16 65.9 °F 55.4 °F 26.58 in SW 0.5 mph 3.5 mph 69 % 0.00 in
07:21 66.4 °F 55.9 °F 26.58 in SSW 0.3 mph 2.0 mph 69 % 0.00 in
07:23 66.6 °F 55.7 °F 26.58 in WSW 0.6 mph 5.8 mph 68 % 0.00 in
07:28 67.2 °F 55.9 °F 26.58 in SSW 2.5 mph 6.0 mph 67 % 0.00 in
07:33 67.7 °F 55.9 °F 26.58 in WSW 4.8 mph 8.1 mph 66 % 0.00 in
07:38 68.1 °F 56.3 °F 26.58 in SW 1.4 mph 3.5 mph 66 % 0.00 in
07:43 68.4 °F 56.2 °F 26.58 in WSW 1.0 mph 4.0 mph 65 % 0.00 in
07:48 68.6 °F 56.4 °F 26.58 in SSW 1.9 mph 3.5 mph 65 % 0.00 in
07:53 68.8 °F 56.6 °F 26.58 in WSW 0.2 mph 3.5 mph 65 % 0.00 in
07:59 69.1 °F 56.4 °F 26.58 in SSW 3.4 mph 5.8 mph 64 % 0.00 in
08:04 69.4 °F 56.7 °F 26.58 in SW 3.1 mph 4.6 mph 64 % 0.00 in
08:09 69.7 °F 57.0 °F 26.58 in WSW 1.1 mph 5.8 mph 64 % 0.00 in
08:14 70.1 °F 56.9 °F 26.58 in WSW 1.4 mph 3.5 mph 63 % 0.00 in
08:19 70.4 °F 57.2 °F 26.58 in WSW 2.8 mph 8.1 mph 63 % 0.00 in
08:24 70.8 °F 57.1 °F 26.58 in SSW 3.4 mph 6.9 mph 62 % 0.00 in
08:29 71.2 °F 57.5 °F 26.58 in SSW 2.9 mph 5.8 mph 62 % 0.00 in
08:34 71.5 °F 57.8 °F 26.58 in SSW 4.2 mph 6.0 mph 62 % 0.00 in
08:39 71.9 °F 57.7 °F 26.58 in SSW 2.7 mph 9.2 mph 61 % 0.00 in
08:44 72.1 °F 57.9 °F 26.58 in SW 1.0 mph 3.5 mph 61 % 0.00 in
08:49 72.4 °F 58.2 °F 26.58 in West 2.3 mph 4.0 mph 61 % 0.00 in
08:54 72.8 °F 58.1 °F 26.58 in WSW 2.5 mph 8.0 mph 60 % 0.00 in
08:59 73.2 °F 58.5 °F 26.58 in WSW 1.0 mph 3.0 mph 60 % 0.00 in
09:04 73.5 °F 57.8 °F 26.58 in SW 3.9 mph 5.8 mph 58 % 0.00 in
09:09 73.9 °F 58.2 °F 26.58 in WSW 5.2 mph 8.1 mph 58 % 0.00 in
09:14 74.2 °F 57.5 °F 26.58 in WSW 3.2 mph 5.0 mph 56 % 0.00 in
09:19 74.6 °F 57.9 °F 26.58 in WSW 4.0 mph 8.1 mph 56 % 0.00 in
09:24 74.9 °F 58.1 °F 26.58 in West 2.5 mph 6.9 mph 56 % 0.00 in
09:29 75.3 °F 58.0 °F 26.58 in WNW 3.4 mph 8.1 mph 55 % 0.00 in
09:34 75.9 °F 58.1 °F 26.58 in SW 2.6 mph 6.0 mph 54 % 0.00 in
09:39 76.5 °F 58.1 °F 26.58 in WSW 1.0 mph 4.6 mph 53 % 0.00 in
09:44 77.1 °F 58.6 °F 26.58 in SSW 2.5 mph 9.2 mph 53 % 0.00 in
09:49 77.8 °F 57.7 °F 26.58 in WSW 4.5 mph 7.0 mph 50 % 0.00 in
09:54 78.5 °F 58.9 °F 26.58 in WSW 1.2 mph 2.3 mph 51 % 0.00 in
09:59 79.3 °F 59.0 °F 26.58 in West 1.1 mph 8.1 mph 50 % 0.00 in
10:05 80.1 °F 59.8 °F 26.58 in West 3.2 mph 7.0 mph 50 % 0.00 in
10:10 80.7 °F 58.0 °F 26.58 in WSW 3.4 mph 5.8 mph 46 % 0.00 in
10:15 81.5 °F 58.1 °F 26.58 in WSW 2.9 mph 5.8 mph 45 % 0.00 in
10:20 82.1 °F 59.9 °F 26.58 in NW 1.9 mph 3.5 mph 47 % 0.00 in
10:25 82.8 °F 61.1 °F 26.58 in WNW 0.4 mph 3.5 mph 48 % 0.00 in
Crab Meadow Weather
Compliments of Weather Underground - 2 mb

Script developed by  Jim McMurry - jmcmurry@mwt.net Adapted for the template by  Wim van der Kuil - Leuven-Template.eu

Weather Terms: Heavy Snow Warning - Snowfall of 6 inches or more in 12 hours or less, or 8 inches or more in 24 hours or less.